Terminal Aerodrome Forecast
Issued by NWS

Home | Current Version | Previous Version | Graphics & Text | Print | Product List | Glossary Off
Versions: 1 2 3 4 5 6 7 8 9 10 11 12 13 14 15 16 17 18 19 20 21 22 23

000
FTUS43 KLOT 282052 AAA
TAFGYY
TAF AMD
KGYY 282052Z 2821/2918 36012G20KT P6SM VCSH BKN025 BKN035
      TEMPO 2823/2901 6SM SHRA BKN025
     FM290300 03018G26KT P6SM BKN035
     FM291400 03017G26KT P6SM VCSH OVC015=

USA.gov is the U.S. government's official web portal to all federal, state and local government web resources and services.